Data Viewer
| City | State | Eastern Time | Source | Temp | DewPt | RH | BP | 5 Min Precip | Wind Speed | Wind Dir | 5 Min Wind Max | 5 Min Wind Max Dir |
|---|---|---|---|---|---|---|---|---|---|---|---|---|
| Blackbird | DE | 2026-05-07 18:45 | DEOS | 62 | 44 | 53 | 29.81 | 0.00 | 4 | SW | 6 | |
| Blackbird | DE | 2026-05-08 10:35 | DEOS | 61 | 37 | 42 | 30.01 | 0.00 | 8 | W | 14 | |
| Blackbird | DE | 2026-05-08 11:05 | DEOS | 62 | 36 | 39 | 30.00 | 0.00 | 9 | WSW | 14 | |
| Blackbird | DE | 2026-05-08 11:00 | DEOS | 61 | 36 | 38 | 30.00 | 0.00 | 7 | WNW | 11 | |
| Blackbird | DE | 2026-05-08 10:55 | DEOS | 61 | 36 | 39 | 30.00 | 0.00 | 7 | W | 11 | |
| Blackbird | DE | 2026-05-08 10:50 | DEOS | 61 | 36 | 39 | 30.00 | 0.00 | 7 | W | 11 | |
| Blackbird | DE | 2026-05-08 10:45 | DEOS | 61 | 37 | 40 | 30.00 | 0.00 | 7 | W | 14 | |
| Blackbird | DE | 2026-05-08 10:40 | DEOS | 60 | 36 | 39 | 30.01 | 0.00 | 7 | WNW | 10 | |
| Blackbird | DE | 2026-05-08 10:30 | DEOS | 60 | 36 | 41 | 30.01 | 0.00 | 7 | W | 12 | |
| Blackbird | DE | 2026-05-08 11:15 | DEOS | 62 | 37 | 39 | 30.00 | 0.00 | 8 | W | 16 | |
| Blackbird | DE | 2026-05-08 10:25 | DEOS | 59 | 37 | 43 | 30.01 | 0.00 | 4 | SW | 13 | |
| Blackbird | DE | 2026-05-08 10:20 | DEOS | 59 | 37 | 44 | 30.01 | 0.00 | 6 | WNW | 11 | |
| Blackbird | DE | 2026-05-08 10:15 | DEOS | 59 | 35 | 40 | 30.01 | 0.00 | 6 | WNW | 9 | |
| Blackbird | DE | 2026-05-08 10:10 | DEOS | 59 | 37 | 43 | 30.01 | 0.00 | 4 | W | 8 | |
| Blackbird | DE | 2026-05-08 10:05 | DEOS | 59 | 37 | 44 | 30.01 | 0.00 | 7 | WSW | 11 | |
| Blackbird | DE | 2026-05-08 10:00 | DEOS | 58 | 39 | 48 | 30.01 | 0.00 | 4 | SSW | 8 | |
| Blackbird | DE | 2026-05-08 11:10 | DEOS | 62 | 37 | 39 | 30.00 | 0.00 | 9 | WSW | 15 | |
| Blackbird | DE | 2026-05-08 11:20 | DEOS | 62 | 36 | 37 | 30.00 | 0.00 | 10 | WNW | 17 | |
| Blackbird | DE | 2026-05-08 09:50 | DEOS | 58 | 38 | 47 | 30.01 | 0.00 | 5 | W | 9 | |
| Blackbird | DE | 2026-05-08 12:05 | DEOS | 64 | 36 | 36 | 29.99 | 0.00 | 10 | WNW | 20 | |
| Blackbird | DE | 2026-05-08 12:35 | DEOS | 65 | 37 | 36 | 29.97 | 0.00 | 11 | W | 18 | |
| Blackbird | DE | 2026-05-08 12:30 | DEOS | 64 | 37 | 36 | 29.98 | 0.00 | 11 | WNW | 16 | |
| Blackbird | DE | 2026-05-08 12:25 | DEOS | 64 | 37 | 36 | 29.98 | 0.00 | 11 | WNW | 18 | |
| Blackbird | DE | 2026-05-08 12:20 | DEOS | 64 | 37 | 36 | 29.98 | 0.00 | 11 | WNW | 20 | |
| Blackbird | DE | 2026-05-08 12:15 | DEOS | 64 | 36 | 35 | 29.98 | 0.00 | 13 | W | 17 | |
| Blackbird | DE | 2026-05-08 12:10 | DEOS | 64 | 37 | 36 | 29.98 | 0.00 | 11 | W | 17 | |
| Blackbird | DE | 2026-05-08 12:00 | DEOS | 63 | 35 | 35 | 29.99 | 0.00 | 12 | W | 19 | |
| Blackbird | DE | 2026-05-08 11:25 | DEOS | 62 | 37 | 39 | 30.00 | 0.00 | 11 | W | 24 | |
| Blackbird | DE | 2026-05-08 11:55 | DEOS | 63 | 35 | 35 | 29.99 | 0.00 | 13 | W | 21 | |
| Blackbird | DE | 2026-05-08 11:50 | DEOS | 63 | 36 | 36 | 29.99 | 0.00 | 14 | WNW | 20 | |
| Blackbird | DE | 2026-05-08 11:45 | DEOS | 63 | 36 | 36 | 29.99 | 0.00 | 12 | W | 17 | |
| Blackbird | DE | 2026-05-08 11:40 | DEOS | 64 | 37 | 38 | 30.00 | 0.00 | 8 | W | 16 | |
| Blackbird | DE | 2026-05-08 11:35 | DEOS | 63 | 37 | 39 | 30.00 | 0.00 | 8 | WNW | 13 | |
| Blackbird | DE | 2026-05-08 11:30 | DEOS | 62 | 36 | 38 | 30.00 | 0.00 | 7 | W | 14 | |
| Blackbird | DE | 2026-05-08 09:55 | DEOS | 58 | 37 | 46 | 30.01 | 0.00 | 5 | W | 8 | |
| Blackbird | DE | 2026-05-08 09:45 | DEOS | 57 | 38 | 49 | 30.01 | 0.00 | 3 | W | 7 | |
| Blackbird | DE | 2026-05-08 12:45 | DEOS | 65 | 37 | 35 | 29.97 | 0.00 | 11 | W | 17 | |
| Blackbird | DE | 2026-05-08 07:35 | DEOS | 50 | 42 | 74 | 30.00 | 0.00 | 1 | WSW | 2 | |
| Blackbird | DE | 2026-05-08 08:05 | DEOS | 52 | 42 | 69 | 30.01 | 0.00 | 2 | WNW | 4 | |
| Blackbird | DE | 2026-05-08 08:00 | DEOS | 52 | 42 | 68 | 30.01 | 0.00 | 2 | W | 4 | |
| Blackbird | DE | 2026-05-08 07:55 | DEOS | 52 | 42 | 70 | 30.00 | 0.00 | 2 | WSW | 4 | |
| Blackbird | DE | 2026-05-08 07:50 | DEOS | 51 | 42 | 71 | 30.00 | 0.00 | 2 | WSW | 3 | |
| Blackbird | DE | 2026-05-08 07:45 | DEOS | 51 | 42 | 72 | 30.00 | 0.00 | 2 | SW | 3 | |
| Blackbird | DE | 2026-05-08 07:40 | DEOS | 50 | 42 | 72 | 30.00 | 0.00 | 1 | WSW | 2 | |
| Blackbird | DE | 2026-05-08 07:30 | DEOS | 49 | 42 | 76 | 30.00 | 0.00 | 2 | WSW | 3 | |
| Blackbird | DE | 2026-05-08 08:15 | DEOS | 53 | 42 | 67 | 30.02 | 0.00 | 4 | W | 5 | |
| Blackbird | DE | 2026-05-08 07:25 | DEOS | 49 | 42 | 78 | 30.00 | 0.00 | 2 | WSW | 3 | |
| Blackbird | DE | 2026-05-08 07:20 | DEOS | 48 | 42 | 80 | 30.00 | 0.00 | 2 | W | 2 | |
| Blackbird | DE | 2026-05-08 07:15 | DEOS | 47 | 42 | 83 | 30.00 | 0.00 | 2 | W | 2 | |
| Blackbird | DE | 2026-05-08 07:10 | DEOS | 46 | 42 | 86 | 29.99 | 0.00 | 2 | W | 2 | |
| Blackbird | DE | 2026-05-08 07:05 | DEOS | 46 | 42 | 87 | 30.00 | 0.00 | 2 | W | 3 | |
| Blackbird | DE | 2026-05-08 07:00 | DEOS | 45 | 41 | 88 | 29.99 | 0.00 | 2 | W | 3 | |
| Blackbird | DE | 2026-05-08 08:10 | DEOS | 52 | 42 | 68 | 30.01 | 0.00 | 4 | W | 5 | |
| Blackbird | DE | 2026-05-08 08:20 | DEOS | 53 | 42 | 66 | 30.02 | 0.00 | 4 | WNW | 6 | |
| Blackbird | DE | 2026-05-08 09:40 | DEOS | 57 | 38 | 49 | 30.01 | 0.00 | 4 | W | 8 | |
| Blackbird | DE | 2026-05-08 09:05 | DEOS | 55 | 41 | 59 | 30.02 | 0.00 | 3 | W | 5 | |
| Blackbird | DE | 2026-05-08 09:35 | DEOS | 57 | 40 | 52 | 30.02 | 0.00 | 2 | SW | 5 | |
| Blackbird | DE | 2026-05-08 09:30 | DEOS | 56 | 39 | 52 | 30.02 | 0.00 | 2 | WSW | 4 | |
| Blackbird | DE | 2026-05-08 09:25 | DEOS | 56 | 40 | 54 | 30.02 | 0.00 | 4 | WSW | 6 | |
| Blackbird | DE | 2026-05-08 09:20 | DEOS | 56 | 40 | 53 | 30.02 | 0.00 | 3 | WNW | 6 | |
| Blackbird | DE | 2026-05-08 09:15 | DEOS | 56 | 39 | 54 | 30.02 | 0.00 | 2 | S | 5 | |
| Blackbird | DE | 2026-05-08 09:10 | DEOS | 56 | 42 | 59 | 30.02 | 0.00 | 2 | WSW | 6 | |
| Blackbird | DE | 2026-05-08 09:00 | DEOS | 55 | 41 | 60 | 30.02 | 0.00 | 4 | WSW | 7 | |
| Blackbird | DE | 2026-05-08 08:25 | DEOS | 53 | 41 | 65 | 30.02 | 0.00 | 3 | WNW | 5 | |
| Blackbird | DE | 2026-05-08 08:55 | DEOS | 55 | 41 | 61 | 30.02 | 0.00 | 3 | WNW | 6 | |
| Blackbird | DE | 2026-05-08 08:50 | DEOS | 55 | 41 | 61 | 30.02 | 0.00 | 3 | WNW | 5 | |
| Blackbird | DE | 2026-05-08 08:45 | DEOS | 54 | 41 | 62 | 30.02 | 0.00 | 4 | W | 6 | |
| Blackbird | DE | 2026-05-08 08:40 | DEOS | 54 | 42 | 63 | 30.02 | 0.00 | 4 | WNW | 7 | |
| Blackbird | DE | 2026-05-08 08:35 | DEOS | 54 | 41 | 63 | 30.02 | 0.00 | 5 | NW | 8 | |
| Blackbird | DE | 2026-05-08 08:30 | DEOS | 54 | 42 | 65 | 30.02 | 0.00 | 4 | W | 7 | |
| Blackbird | DE | 2026-05-08 12:40 | DEOS | 64 | 36 | 34 | 29.97 | 0.00 | 13 | WSW | 23 | |
| Blackbird | DE | 2026-05-08 12:50 | DEOS | 65 | 36 | 35 | 29.97 | 0.00 | 13 | W | 18 | |
| Blackbird | DE | 2026-05-08 06:50 | DEOS | 44 | 40 | 88 | 29.99 | 0.00 | 2 | WNW | 3 | |
| Blackbird | DE | 2026-05-08 16:35 | DEOS | 69 | 40 | 35 | 29.91 | 0.00 | 9 | WSW | 15 | |
| Blackbird | DE | 2026-05-08 17:05 | DEOS | 69 | 39 | 34 | 29.90 | 0.00 | 7 | WSW | 15 | |
| Blackbird | DE | 2026-05-08 17:00 | DEOS | 68 | 38 | 33 | 29.90 | 0.00 | 12 | WSW | 21 | |
| Blackbird | DE | 2026-05-08 16:55 | DEOS | 69 | 39 | 34 | 29.91 | 0.00 | 8 | WSW | 13 | |
| Blackbird | DE | 2026-05-08 16:50 | DEOS | 69 | 39 | 34 | 29.91 | 0.00 | 9 | SW | 13 | |
| Blackbird | DE | 2026-05-08 16:45 | DEOS | 69 | 39 | 34 | 29.91 | 0.00 | 11 | W | 15 | |
| Blackbird | DE | 2026-05-08 16:40 | DEOS | 69 | 39 | 34 | 29.91 | 0.00 | 10 | WSW | 16 | |
| Blackbird | DE | 2026-05-08 16:30 | DEOS | 68 | 39 | 35 | 29.91 | 0.00 | 9 | WSW | 14 | |
| Blackbird | DE | 2026-05-08 17:15 | DEOS | 69 | 40 | 35 | 29.90 | 0.00 | 9 | WSW | 14 | |
| Blackbird | DE | 2026-05-08 16:25 | DEOS | 69 | 40 | 35 | 29.91 | 0.00 | 7 | WSW | 16 | |
| Blackbird | DE | 2026-05-08 16:20 | DEOS | 68 | 40 | 35 | 29.91 | 0.00 | 5 | WSW | 10 | |
| Blackbird | DE | 2026-05-08 16:15 | DEOS | 67 | 40 | 36 | 29.91 | 0.00 | 8 | WSW | 15 | |
| Blackbird | DE | 2026-05-08 16:10 | DEOS | 68 | 40 | 35 | 29.91 | 0.00 | 6 | W | 9 | |
| Blackbird | DE | 2026-05-08 16:05 | DEOS | 68 | 40 | 36 | 29.91 | 0.00 | 8 | W | 11 | |
| Blackbird | DE | 2026-05-08 16:00 | DEOS | 67 | 39 | 35 | 29.91 | 0.00 | 9 | WSW | 16 | |
| Blackbird | DE | 2026-05-08 17:10 | DEOS | 68 | 39 | 34 | 29.90 | 0.00 | 8 | SW | 14 | |
| Blackbird | DE | 2026-05-08 17:20 | DEOS | 69 | 40 | 36 | 29.90 | 0.00 | 7 | W | 13 | |
| Blackbird | DE | 2026-05-08 15:50 | DEOS | 67 | 40 | 36 | 29.92 | 0.00 | 7 | WSW | 12 | |
| Blackbird | DE | 2026-05-08 18:05 | DEOS | 68 | 39 | 35 | 29.90 | 0.00 | 9 | WSW | 14 | |
| Blackbird | DE | 2026-05-08 18:35 | DEOS | 67 | 40 | 38 | 29.90 | 0.00 | 6 | WSW | 11 | |
| Blackbird | DE | 2026-05-08 18:30 | DEOS | 67 | 40 | 37 | 29.90 | 0.00 | 5 | WSW | 8 | |
| Blackbird | DE | 2026-05-08 18:25 | DEOS | 67 | 39 | 36 | 29.90 | 0.00 | 5 | W | 9 | |
| Blackbird | DE | 2026-05-08 18:20 | DEOS | 67 | 39 | 36 | 29.90 | 0.00 | 7 | W | 11 | |
| Blackbird | DE | 2026-05-08 18:15 | DEOS | 68 | 40 | 36 | 29.90 | 0.00 | 6 | WSW | 11 | |
| Blackbird | DE | 2026-05-08 18:10 | DEOS | 68 | 39 | 35 | 29.90 | 0.00 | 5 | SW | 7 | |
| Blackbird | DE | 2026-05-08 18:00 | DEOS | 69 | 40 | 36 | 29.90 | 0.00 | 7 | SW | 11 | |
| Blackbird | DE | 2026-05-08 17:25 | DEOS | 69 | 40 | 35 | 29.90 | 0.00 | 9 | WSW | 14 | |
| Blackbird | DE | 2026-05-08 17:55 | DEOS | 68 | 40 | 35 | 29.90 | 0.00 | 7 | WSW | 11 | |
| Blackbird | DE | 2026-05-08 17:50 | DEOS | 68 | 40 | 36 | 29.90 | 0.00 | 6 | SW | 10 | |
| Blackbird | DE | 2026-05-08 17:45 | DEOS | 68 | 39 | 35 | 29.90 | 0.00 | 8 | WSW | 12 | |
| Blackbird | DE | 2026-05-08 17:40 | DEOS | 69 | 40 | 35 | 29.90 | 0.00 | 8 | WSW | 13 | |
| Blackbird | DE | 2026-05-08 17:35 | DEOS | 69 | 40 | 36 | 29.90 | 0.00 | 6 | WSW | 10 | |
| Blackbird | DE | 2026-05-08 17:30 | DEOS | 68 | 39 | 35 | 29.90 | 0.00 | 6 | WSW | 11 | |
| Blackbird | DE | 2026-05-08 15:55 | DEOS | 68 | 40 | 35 | 29.92 | 0.00 | 8 | WSW | 12 | |
| Blackbird | DE | 2026-05-08 15:45 | DEOS | 67 | 39 | 36 | 29.92 | 0.00 | 8 | SW | 12 | |
| Blackbird | DE | 2026-05-08 12:55 | DEOS | 65 | 37 | 36 | 29.96 | 0.00 | 12 | W | 18 | |
| Blackbird | DE | 2026-05-08 13:35 | DEOS | 67 | 39 | 36 | 29.96 | 0.00 | 9 | W | 16 | |
| Blackbird | DE | 2026-05-08 14:05 | DEOS | 67 | 38 | 35 | 29.95 | 0.00 | 9 | WNW | 18 | |
| Blackbird | DE | 2026-05-08 14:00 | DEOS | 67 | 38 | 35 | 29.95 | 0.00 | 13 | WNW | 19 | |
| Blackbird | DE | 2026-05-08 13:55 | DEOS | 67 | 38 | 35 | 29.95 | 0.00 | 14 | WNW | 21 | |
| Blackbird | DE | 2026-05-08 13:50 | DEOS | 67 | 39 | 36 | 29.95 | 0.00 | 12 | WNW | 20 | |
| Blackbird | DE | 2026-05-08 13:45 | DEOS | 66 | 38 | 35 | 29.96 | 0.00 | 13 | WNW | 22 | |
| Blackbird | DE | 2026-05-08 13:40 | DEOS | 66 | 37 | 34 | 29.96 | 0.00 | 15 | WNW | 21 | |
| Blackbird | DE | 2026-05-08 13:30 | DEOS | 66 | 38 | 35 | 29.96 | 0.00 | 9 | WSW | 16 | |
| Blackbird | DE | 2026-05-08 14:15 | DEOS | 67 | 38 | 34 | 29.95 | 0.00 | 9 | WNW | 16 | |
| Blackbird | DE | 2026-05-08 13:25 | DEOS | 65 | 37 | 35 | 29.96 | 0.00 | 10 | WSW | 16 | |
| Blackbird | DE | 2026-05-08 13:20 | DEOS | 66 | 37 | 35 | 29.96 | 0.00 | 12 | W | 20 | |
| Blackbird | DE | 2026-05-08 13:15 | DEOS | 65 | 37 | 35 | 29.96 | 0.00 | 10 | WSW | 17 | |
| Blackbird | DE | 2026-05-08 13:10 | DEOS | 65 | 37 | 35 | 29.96 | 0.00 | 10 | WSW | 17 | |
| Blackbird | DE | 2026-05-08 13:05 | DEOS | 65 | 37 | 35 | 29.96 | 0.00 | 11 | W | 17 | |
| Blackbird | DE | 2026-05-08 13:00 | DEOS | 65 | 37 | 35 | 29.96 | 0.00 | 9 | WSW | 14 | |
| Blackbird | DE | 2026-05-08 14:10 | DEOS | 67 | 38 | 34 | 29.95 | 0.00 | 13 | WNW | 20 | |
| Blackbird | DE | 2026-05-08 14:20 | DEOS | 67 | 38 | 34 | 29.94 | 0.00 | 13 | W | 23 | |
| Blackbird | DE | 2026-05-08 15:40 | DEOS | 68 | 38 | 33 | 29.92 | 0.00 | 7 | SW | 14 | |
| Blackbird | DE | 2026-05-08 15:05 | DEOS | 69 | 38 | 33 | 29.94 | 0.00 | 11 | WNW | 22 | |
| Blackbird | DE | 2026-05-08 15:35 | DEOS | 69 | 38 | 32 | 29.93 | 0.00 | 10 | WSW | 18 | |
| Blackbird | DE | 2026-05-08 15:30 | DEOS | 69 | 38 | 32 | 29.93 | 0.00 | 13 | W | 20 | |
| Blackbird | DE | 2026-05-08 15:25 | DEOS | 69 | 39 | 34 | 29.93 | 0.00 | 10 | WNW | 23 | |
| Blackbird | DE | 2026-05-08 15:20 | DEOS | 68 | 38 | 32 | 29.93 | 0.00 | 13 | W | 19 | |
| Blackbird | DE | 2026-05-08 15:15 | DEOS | 69 | 39 | 33 | 29.93 | 0.00 | 11 | WNW | 19 | |
| Blackbird | DE | 2026-05-08 15:10 | DEOS | 68 | 39 | 34 | 29.93 | 0.00 | 13 | WNW | 20 | |
| Blackbird | DE | 2026-05-08 15:00 | DEOS | 67 | 37 | 33 | 29.94 | 0.00 | 14 | W | 24 | |
| Blackbird | DE | 2026-05-08 14:25 | DEOS | 68 | 39 | 34 | 29.94 | 0.00 | 13 | W | 19 | |
| Blackbird | DE | 2026-05-08 14:55 | DEOS | 67 | 38 | 35 | 29.94 | 0.00 | 11 | W | 18 | |
| Blackbird | DE | 2026-05-08 14:50 | DEOS | 67 | 37 | 32 | 29.94 | 0.00 | 11 | WSW | 17 | |
| Blackbird | DE | 2026-05-08 14:45 | DEOS | 68 | 39 | 34 | 29.94 | 0.00 | 9 | W | 16 | |
| Blackbird | DE | 2026-05-08 14:40 | DEOS | 68 | 38 | 34 | 29.94 | 0.00 | 11 | WNW | 21 | |
| Blackbird | DE | 2026-05-08 14:35 | DEOS | 67 | 38 | 34 | 29.94 | 0.00 | 11 | W | 16 | |
| Blackbird | DE | 2026-05-08 14:30 | DEOS | 68 | 39 | 34 | 29.94 | 0.00 | 13 | WNW | 21 | |
| Blackbird | DE | 2026-05-08 06:55 | DEOS | 44 | 40 | 87 | 29.99 | 0.00 | 2 | WNW | 3 | |
| Blackbird | DE | 2026-05-08 06:45 | DEOS | 43 | 40 | 88 | 29.99 | 0.00 | 2 | WNW | 3 | |
| Blackbird | DE | 2026-05-07 18:50 | DEOS | 62 | 44 | 53 | 29.81 | 0.00 | 3 | SW | 5 | |
| Blackbird | DE | 2026-05-07 22:30 | DEOS | 52 | 44 | 74 | 29.87 | 0.00 | 6 | WSW | 9 | |
| Blackbird | DE | 2026-05-07 23:00 | DEOS | 52 | 44 | 75 | 29.87 | 0.00 | 6 | W | 9 | |
| Blackbird | DE | 2026-05-07 22:55 | DEOS | 52 | 44 | 75 | 29.87 | 0.00 | 6 | W | 8 | |
| Blackbird | DE | 2026-05-07 22:50 | DEOS | 52 | 44 | 75 | 29.87 | 0.00 | 6 | W | 9 | |
| Blackbird | DE | 2026-05-07 22:45 | DEOS | 52 | 44 | 74 | 29.87 | 0.00 | 6 | W | 9 | |
| Blackbird | DE | 2026-05-07 22:40 | DEOS | 52 | 44 | 74 | 29.87 | 0.00 | 6 | W | 10 | |
| Blackbird | DE | 2026-05-07 22:35 | DEOS | 52 | 44 | 74 | 29.87 | 0.00 | 6 | W | 10 | |
| Blackbird | DE | 2026-05-07 22:25 | DEOS | 52 | 44 | 74 | 29.87 | 0.00 | 5 | W | 10 | |
| Blackbird | DE | 2026-05-07 23:10 | DEOS | 52 | 44 | 76 | 29.87 | 0.00 | 6 | W | 8 | |
| Blackbird | DE | 2026-05-07 22:20 | DEOS | 52 | 44 | 74 | 29.87 | 0.00 | 6 | W | 10 | |
| Blackbird | DE | 2026-05-07 22:15 | DEOS | 52 | 44 | 73 | 29.87 | 0.00 | 6 | W | 9 | |
| Blackbird | DE | 2026-05-07 22:10 | DEOS | 53 | 44 | 73 | 29.87 | 0.00 | 6 | WSW | 10 | |
| Blackbird | DE | 2026-05-07 22:05 | DEOS | 53 | 44 | 74 | 29.87 | 0.00 | 7 | W | 12 | |
| Blackbird | DE | 2026-05-07 22:00 | DEOS | 53 | 44 | 74 | 29.87 | 0.00 | 6 | WSW | 8 | |
| Blackbird | DE | 2026-05-07 21:55 | DEOS | 53 | 45 | 75 | 29.87 | 0.00 | 6 | W | 10 | |
| Blackbird | DE | 2026-05-07 23:05 | DEOS | 52 | 44 | 75 | 29.87 | 0.00 | 6 | W | 11 | |
| Blackbird | DE | 2026-05-07 23:15 | DEOS | 52 | 44 | 76 | 29.87 | 0.00 | 6 | W | 11 | |
| Blackbird | DE | 2026-05-07 21:45 | DEOS | 53 | 45 | 75 | 29.86 | 0.00 | 6 | WSW | 9 | |
| Blackbird | DE | 2026-05-08 00:00 | DEOS | 52 | 45 | 77 | 29.87 | 0.00 | 6 | W | 8 | |
| Blackbird | DE | 2026-05-08 00:30 | DEOS | 53 | 46 | 76 | 29.87 | 0.00 | 6 | W | 9 | |
| Blackbird | DE | 2026-05-08 00:25 | DEOS | 53 | 46 | 77 | 29.87 | 0.00 | 7 | W | 11 | |
| Blackbird | DE | 2026-05-08 00:20 | DEOS | 53 | 46 | 77 | 29.87 | 0.00 | 7 | W | 10 | |
| Blackbird | DE | 2026-05-08 00:15 | DEOS | 53 | 46 | 76 | 29.87 | 0.00 | 7 | W | 10 | |
| Blackbird | DE | 2026-05-08 00:10 | DEOS | 53 | 46 | 76 | 29.87 | 0.00 | 6 | W | 11 | |
| Blackbird | DE | 2026-05-08 00:05 | DEOS | 53 | 46 | 77 | 29.87 | 0.00 | 7 | W | 9 | |
| Blackbird | DE | 2026-05-07 23:55 | DEOS | 52 | 45 | 77 | 29.87 | 0.00 | 6 | W | 9 | |
| Blackbird | DE | 2026-05-07 23:20 | DEOS | 52 | 45 | 76 | 29.87 | 0.00 | 6 | W | 11 | |
| Blackbird | DE | 2026-05-07 23:50 | DEOS | 52 | 45 | 76 | 29.87 | 0.00 | 5 | W | 7 | |
| Blackbird | DE | 2026-05-07 23:45 | DEOS | 53 | 45 | 76 | 29.87 | 0.00 | 6 | W | 8 | |
| Blackbird | DE | 2026-05-07 23:40 | DEOS | 53 | 45 | 76 | 29.87 | 0.00 | 6 | W | 9 | |
| Blackbird | DE | 2026-05-07 23:35 | DEOS | 52 | 45 | 76 | 29.87 | 0.00 | 5 | W | 8 | |
| Blackbird | DE | 2026-05-07 23:30 | DEOS | 52 | 45 | 76 | 29.87 | 0.00 | 6 | W | 9 | |
| Blackbird | DE | 2026-05-07 23:25 | DEOS | 52 | 45 | 76 | 29.87 | 0.00 | 6 | W | 9 | |
| Blackbird | DE | 2026-05-07 21:50 | DEOS | 53 | 45 | 75 | 29.87 | 0.00 | 7 | W | 10 | |
| Blackbird | DE | 2026-05-07 21:40 | DEOS | 53 | 45 | 75 | 29.86 | 0.00 | 7 | W | 10 | |
| Blackbird | DE | 2026-05-08 00:40 | DEOS | 53 | 46 | 77 | 29.87 | 0.00 | 6 | W | 10 | |
| Blackbird | DE | 2026-05-07 19:30 | DEOS | 59 | 46 | 61 | 29.82 | 0.00 | 3 | SW | 5 | |
| Blackbird | DE | 2026-05-07 20:00 | DEOS | 57 | 46 | 65 | 29.83 | 0.00 | 3 | WSW | 5 | |
| Blackbird | DE | 2026-05-07 19:55 | DEOS | 58 | 46 | 64 | 29.83 | 0.00 | 4 | SW | 8 | |
| Blackbird | DE | 2026-05-07 19:50 | DEOS | 58 | 46 | 64 | 29.82 | 0.00 | 3 | SSW | 6 | |
| Blackbird | DE | 2026-05-07 19:45 | DEOS | 58 | 46 | 65 | 29.82 | 0.00 | 4 | SSW | 8 | |
| Blackbird | DE | 2026-05-07 19:40 | DEOS | 58 | 46 | 64 | 29.82 | 0.00 | 4 | S | 5 | |
| Blackbird | DE | 2026-05-07 19:35 | DEOS | 59 | 46 | 62 | 29.82 | 0.00 | 3 | SSW | 5 | |
| Blackbird | DE | 2026-05-07 19:25 | DEOS | 59 | 46 | 61 | 29.82 | 0.00 | 4 | SSW | 5 | |
| Blackbird | DE | 2026-05-07 20:10 | DEOS | 56 | 45 | 67 | 29.83 | 0.00 | 3 | WSW | 5 | |
| Blackbird | DE | 2026-05-07 19:20 | DEOS | 60 | 46 | 59 | 29.82 | 0.00 | 5 | SW | 8 | |
| Blackbird | DE | 2026-05-07 19:15 | DEOS | 60 | 45 | 58 | 29.82 | 0.00 | 3 | SW | 6 | |
| Blackbird | DE | 2026-05-07 19:10 | DEOS | 61 | 45 | 55 | 29.82 | 0.00 | 3 | SSW | 5 | |
| Blackbird | DE | 2026-05-07 19:05 | DEOS | 61 | 45 | 55 | 29.82 | 0.00 | 3 | SW | 6 | |
| Blackbird | DE | 2026-05-07 19:00 | DEOS | 61 | 45 | 54 | 29.81 | 0.00 | 3 | WSW | 6 | |
| Blackbird | DE | 2026-05-07 18:55 | DEOS | 62 | 44 | 53 | 29.81 | 0.00 | 4 | SW | 6 | |
| Blackbird | DE | 2026-05-07 20:05 | DEOS | 57 | 46 | 66 | 29.83 | 0.00 | 3 | WSW | 5 | |
| Blackbird | DE | 2026-05-07 20:15 | DEOS | 56 | 46 | 67 | 29.83 | 0.00 | 3 | WSW | 5 | |
| Blackbird | DE | 2026-05-07 21:35 | DEOS | 53 | 45 | 75 | 29.86 | 0.00 | 5 | WSW | 9 | |
| Blackbird | DE | 2026-05-07 21:00 | DEOS | 54 | 45 | 72 | 29.84 | 0.00 | 3 | WSW | 5 | |
| Blackbird | DE | 2026-05-07 21:30 | DEOS | 53 | 45 | 74 | 29.86 | 0.00 | 6 | WSW | 10 | |
| Blackbird | DE | 2026-05-07 21:25 | DEOS | 54 | 45 | 73 | 29.86 | 0.00 | 6 | WSW | 8 | |
| Blackbird | DE | 2026-05-07 21:20 | DEOS | 54 | 45 | 72 | 29.85 | 0.00 | 6 | WSW | 10 | |
| Blackbird | DE | 2026-05-07 21:15 | DEOS | 54 | 45 | 71 | 29.85 | 0.00 | 4 | WSW | 8 | |
| Blackbird | DE | 2026-05-07 21:10 | DEOS | 54 | 45 | 71 | 29.85 | 0.00 | 4 | SW | 7 | |
| Blackbird | DE | 2026-05-07 21:05 | DEOS | 54 | 45 | 72 | 29.84 | 0.00 | 4 | SW | 7 | |
| Blackbird | DE | 2026-05-07 20:55 | DEOS | 54 | 45 | 72 | 29.84 | 0.00 | 3 | WSW | 5 | |
| Blackbird | DE | 2026-05-07 20:20 | DEOS | 56 | 46 | 68 | 29.83 | 0.00 | 2 | SW | 3 | |
| Blackbird | DE | 2026-05-07 20:50 | DEOS | 55 | 45 | 71 | 29.84 | 0.00 | 3 | SW | 4 | |
| Blackbird | DE | 2026-05-07 20:45 | DEOS | 55 | 45 | 70 | 29.84 | 0.00 | 2 | SW | 3 | |
| Blackbird | DE | 2026-05-07 20:40 | DEOS | 55 | 45 | 70 | 29.83 | 0.00 | 2 | SW | 3 | |
| Blackbird | DE | 2026-05-07 20:35 | DEOS | 55 | 46 | 70 | 29.83 | 0.00 | 2 | SW | 3 | |
| Blackbird | DE | 2026-05-07 20:30 | DEOS | 55 | 45 | 69 | 29.83 | 0.00 | 2 | SW | 4 | |
| Blackbird | DE | 2026-05-07 20:25 | DEOS | 56 | 46 | 69 | 29.83 | 0.00 | 2 | SW | 4 | |
| Blackbird | DE | 2026-05-08 00:35 | DEOS | 53 | 46 | 76 | 29.87 | 0.00 | 8 | W | 11 | |
| Blackbird | DE | 2026-05-08 00:45 | DEOS | 53 | 46 | 77 | 29.87 | 0.00 | 8 | W | 12 | |
| Blackbird | DE | 2026-05-08 06:40 | DEOS | 43 | 40 | 87 | 29.99 | 0.00 | 2 | WNW | 3 | |
| Blackbird | DE | 2026-05-08 04:35 | DEOS | 50 | 39 | 65 | 29.95 | 0.00 | 5 | NW | 7 | |
| Blackbird | DE | 2026-05-08 05:05 | DEOS | 49 | 39 | 69 | 29.96 | 0.00 | 4 | NW | 7 | |
| Blackbird | DE | 2026-05-08 05:00 | DEOS | 49 | 39 | 68 | 29.96 | 0.00 | 4 | WNW | 7 | |
| Blackbird | DE | 2026-05-08 04:55 | DEOS | 49 | 39 | 67 | 29.96 | 0.00 | 4 | WNW | 8 | |
| Blackbird | DE | 2026-05-08 04:50 | DEOS | 50 | 39 | 66 | 29.96 | 0.00 | 4 | NW | 8 | |
| Blackbird | DE | 2026-05-08 04:45 | DEOS | 50 | 39 | 66 | 29.95 | 0.00 | 4 | NW | 7 | |
| Blackbird | DE | 2026-05-08 04:40 | DEOS | 50 | 39 | 65 | 29.95 | 0.00 | 4 | NW | 9 | |
| Blackbird | DE | 2026-05-08 04:30 | DEOS | 51 | 39 | 65 | 29.95 | 0.00 | 4 | NW | 8 | |
| Blackbird | DE | 2026-05-08 05:15 | DEOS | 49 | 39 | 69 | 29.96 | 0.00 | 4 | NW | 6 | |
| Blackbird | DE | 2026-05-08 04:25 | DEOS | 51 | 39 | 65 | 29.94 | 0.00 | 5 | NW | 9 | |
| Blackbird | DE | 2026-05-08 04:20 | DEOS | 51 | 39 | 64 | 29.94 | 0.00 | 6 | NW | 9 | |
| Blackbird | DE | 2026-05-08 04:15 | DEOS | 51 | 39 | 64 | 29.94 | 0.00 | 6 | NW | 8 | |
| Blackbird | DE | 2026-05-08 04:10 | DEOS | 51 | 40 | 64 | 29.94 | 0.00 | 5 | NNW | 12 | |
| Blackbird | DE | 2026-05-08 04:05 | DEOS | 52 | 40 | 64 | 29.93 | 0.00 | 6 | NW | 10 | |
| Blackbird | DE | 2026-05-08 04:00 | DEOS | 52 | 40 | 64 | 29.93 | 0.00 | 5 | NW | 11 | |
| Blackbird | DE | 2026-05-08 05:10 | DEOS | 49 | 39 | 69 | 29.96 | 0.00 | 3 | NW | 7 | |
| Blackbird | DE | 2026-05-08 05:20 | DEOS | 48 | 39 | 70 | 29.96 | 0.00 | 4 | NW | 7 | |
| Blackbird | DE | 2026-05-08 03:50 | DEOS | 52 | 40 | 64 | 29.92 | 0.00 | 7 | NW | 11 | |
| Blackbird | DE | 2026-05-08 06:05 | DEOS | 43 | 39 | 84 | 29.97 | 0.00 | 1 | WNW | 2 | |
| Blackbird | DE | 2026-05-08 06:35 | DEOS | 43 | 40 | 87 | 29.98 | 0.00 | 2 | WNW | 2 | |
| Blackbird | DE | 2026-05-08 06:30 | DEOS | 43 | 39 | 87 | 29.98 | 0.00 | 2 | WNW | 2 | |
| Blackbird | DE | 2026-05-08 06:25 | DEOS | 42 | 39 | 89 | 29.98 | 0.00 | 2 | W | 2 | |
| Blackbird | DE | 2026-05-08 06:20 | DEOS | 42 | 39 | 89 | 29.98 | 0.00 | 1 | W | 2 | |
| Blackbird | DE | 2026-05-08 06:15 | DEOS | 42 | 38 | 87 | 29.97 | 0.00 | 2 | W | 2 | |
| Blackbird | DE | 2026-05-08 06:10 | DEOS | 43 | 38 | 85 | 29.97 | 0.00 | 1 | W | 2 | |
| Blackbird | DE | 2026-05-08 06:00 | DEOS | 44 | 39 | 82 | 29.97 | 0.00 | 2 | W | 2 | |
| Blackbird | DE | 2026-05-08 05:25 | DEOS | 48 | 39 | 70 | 29.96 | 0.00 | 4 | NW | 5 | |
| Blackbird | DE | 2026-05-08 05:55 | DEOS | 45 | 39 | 79 | 29.97 | 0.00 | 2 | W | 3 | |
| Blackbird | DE | 2026-05-08 05:50 | DEOS | 46 | 39 | 76 | 29.96 | 0.00 | 2 | WNW | 3 | |
| Blackbird | DE | 2026-05-08 05:45 | DEOS | 47 | 39 | 74 | 29.96 | 0.00 | 2 | WNW | 5 | |
| Blackbird | DE | 2026-05-08 05:40 | DEOS | 47 | 39 | 73 | 29.96 | 0.00 | 3 | WNW | 4 | |
| Blackbird | DE | 2026-05-08 05:35 | DEOS | 47 | 39 | 72 | 29.96 | 0.00 | 3 | NW | 5 | |
| Blackbird | DE | 2026-05-08 05:30 | DEOS | 48 | 39 | 72 | 29.96 | 0.00 | 3 | NW | 4 | |
| Blackbird | DE | 2026-05-08 03:55 | DEOS | 52 | 40 | 64 | 29.93 | 0.00 | 6 | NW | 9 | |
| Blackbird | DE | 2026-05-08 03:45 | DEOS | 52 | 40 | 64 | 29.92 | 0.00 | 6 | NW | 10 | |
| Blackbird | DE | 2026-05-08 00:50 | DEOS | 53 | 46 | 77 | 29.88 | 0.00 | 8 | W | 14 | |
| Blackbird | DE | 2026-05-08 01:30 | DEOS | 53 | 47 | 80 | 29.88 | 0.00 | 9 | W | 13 | |
| Blackbird | DE | 2026-05-08 02:00 | DEOS | 52 | 47 | 83 | 29.88 | 0.00 | 8 | W | 13 | |
| Blackbird | DE | 2026-05-08 01:55 | DEOS | 52 | 47 | 83 | 29.88 | 0.00 | 7 | W | 12 | |
| Blackbird | DE | 2026-05-08 01:50 | DEOS | 52 | 47 | 82 | 29.88 | 0.00 | 8 | W | 11 | |
| Blackbird | DE | 2026-05-08 01:45 | DEOS | 52 | 47 | 82 | 29.88 | 0.00 | 8 | W | 12 | |
| Blackbird | DE | 2026-05-08 01:40 | DEOS | 52 | 47 | 81 | 29.88 | 0.00 | 7 | W | 11 | |
| Blackbird | DE | 2026-05-08 01:35 | DEOS | 53 | 47 | 80 | 29.88 | 0.00 | 8 | W | 13 | |
| Blackbird | DE | 2026-05-08 01:25 | DEOS | 53 | 47 | 79 | 29.88 | 0.00 | 8 | W | 11 | |
| Blackbird | DE | 2026-05-08 02:10 | DEOS | 52 | 47 | 84 | 29.88 | 0.00 | 8 | W | 11 | |
| Blackbird | DE | 2026-05-08 01:20 | DEOS | 53 | 47 | 79 | 29.88 | 0.00 | 9 | W | 12 | |
| Blackbird | DE | 2026-05-08 01:15 | DEOS | 53 | 47 | 78 | 29.88 | 0.00 | 8 | W | 13 | |
| Blackbird | DE | 2026-05-08 01:10 | DEOS | 53 | 46 | 78 | 29.88 | 0.00 | 8 | W | 11 | |
| Blackbird | DE | 2026-05-08 01:05 | DEOS | 53 | 46 | 77 | 29.88 | 0.00 | 7 | W | 11 | |
| Blackbird | DE | 2026-05-08 01:00 | DEOS | 53 | 46 | 77 | 29.88 | 0.00 | 8 | W | 13 | |
| Blackbird | DE | 2026-05-08 00:55 | DEOS | 53 | 46 | 77 | 29.88 | 0.00 | 8 | W | 12 | |
| Blackbird | DE | 2026-05-08 02:05 | DEOS | 52 | 47 | 83 | 29.88 | 0.00 | 8 | W | 11 | |
| Blackbird | DE | 2026-05-08 02:15 | DEOS | 52 | 47 | 84 | 29.88 | 0.00 | 8 | W | 12 | |
| Blackbird | DE | 2026-05-08 03:40 | DEOS | 52 | 41 | 65 | 29.92 | 0.00 | 7 | NW | 12 | |
| Blackbird | DE | 2026-05-08 03:05 | DEOS | 50 | 46 | 88 | 29.90 | 0.00 | 5 | WNW | 7 | |
| Blackbird | DE | 2026-05-08 03:35 | DEOS | 52 | 42 | 67 | 29.92 | 0.00 | 6 | NW | 14 | |
| Blackbird | DE | 2026-05-08 03:30 | DEOS | 52 | 42 | 69 | 29.91 | 0.00 | 6 | NW | 9 | |
| Blackbird | DE | 2026-05-08 03:25 | DEOS | 51 | 43 | 73 | 29.91 | 0.00 | 7 | NW | 12 | |
| Blackbird | DE | 2026-05-08 03:20 | DEOS | 50 | 44 | 80 | 29.91 | 0.00 | 5 | WNW | 10 | |
| Blackbird | DE | 2026-05-08 03:15 | DEOS | 50 | 45 | 85 | 29.91 | 0.00 | 5 | WNW | 7 | |
| Blackbird | DE | 2026-05-08 03:10 | DEOS | 50 | 46 | 86 | 29.90 | 0.00 | 5 | WNW | 9 | |
| Blackbird | DE | 2026-05-08 03:00 | DEOS | 50 | 46 | 88 | 29.90 | 0.00 | 5 | WNW | 6 | |
| Blackbird | DE | 2026-05-08 02:20 | DEOS | 52 | 47 | 84 | 29.89 | 0.00 | 7 | W | 10 | |
| Blackbird | DE | 2026-05-08 02:55 | DEOS | 50 | 46 | 88 | 29.90 | 0.00 | 5 | WNW | 7 | |
| Blackbird | DE | 2026-05-08 02:50 | DEOS | 50 | 46 | 87 | 29.90 | 0.00 | 5 | WNW | 6 | |
| Blackbird | DE | 2026-05-08 02:45 | DEOS | 50 | 47 | 88 | 29.90 | 0.00 | 5 | WNW | 8 | |
| Blackbird | DE | 2026-05-08 02:40 | DEOS | 51 | 47 | 87 | 29.90 | 0.00 | 6 | W | 9 | |
| Blackbird | DE | 2026-05-08 02:35 | DEOS | 51 | 47 | 87 | 29.89 | 0.00 | 6 | W | 10 | |
| Blackbird | DE | 2026-05-08 02:30 | DEOS | 51 | 47 | 86 | 29.89 | 0.00 | 7 | WNW | 9 | |
| Blackbird | DE | 2026-05-08 02:25 | DEOS | 51 | 47 | 85 | 29.89 | 0.00 | 8 | W | 10 | |
| Blackbird | DE | 2026-05-08 18:40 | DEOS | 67 | 40 | 37 | 29.90 | 0.00 | 6 | SW | 12 |
data collection created in 0.054857015609741 (queried in 0.010587) rendered in: 0.00078296661376953

